Time;durP1;ratioP1;P1;durP2;ratioP2;P2;SDS_P1;SDS_P2;PMS_P1;PMS_P2;Temp;Humidity;BMP_temperature;BMP_pressure;BME280_temperature;BME280_humidity;BME280_pressure;Samples;Min_cycle;Max_cycle;Signal;HPM_P1;HPM_P2
2021/09/10 00:02:02;;;;;;;57.88;45.50;;;;;;;;;;5093081;28;20119;-65
2021/09/10 00:04:48;;;;;;;62.42;50.60;;;;;;;;;;5092980;28;20052;-64
2021/09/10 00:07:33;;;;;;;57.42;49.33;;;;;;;;;;5093084;28;20410;-64
2021/09/10 00:10:18;;;;;;;64.25;49.92;;;;;;;;;;5092873;28;20127;-64
2021/09/10 00:13:04;;;;;;;54.35;45.92;;;;;;;;;;5077851;28;20055;-64
2021/09/10 00:15:48;;;;;;;58.30;47.47;;;;;;;;;;5092758;28;20052;-64
2021/09/10 00:18:34;;;;;;;61.65;48.55;;;;;;;;;;5092660;28;20047;-65
2021/09/10 00:21:19;;;;;;;50.45;44.42;;;;;;;;;;5092827;28;20055;-65
2021/09/10 00:24:05;;;;;;;54.70;46.65;;;;;;;;;;5092542;28;20055;-65
2021/09/10 00:26:50;;;;;;;50.88;44.60;;;;;;;;;;5092621;28;20056;-64
2021/09/10 00:29:35;;;;;;;51.28;44.03;;;;;;;;;;5092790;28;20052;-64
2021/09/10 00:32:21;;;;;;;51.78;43.97;;;;;;;;;;5092275;28;20414;-64
2021/09/10 00:35:06;;;;;;;44.83;37.50;;;;;;;;;;5092209;28;20044;-65
2021/09/10 00:37:51;;;;;;;43.90;37.20;;;;;;;;;;5092700;28;20052;-65
2021/09/10 00:40:36;;;;;;;40.50;35.72;;;;;;;;;;5092447;28;20048;-65
2021/09/10 00:43:22;;;;;;;38.45;34.42;;;;;;;;;;5092184;28;20051;-65
2021/09/10 00:46:07;;;;;;;35.95;31.98;;;;;;;;;;5092517;28;20119;-65
2021/09/10 00:48:53;;;;;;;37.30;31.45;;;;;;;;;;5092396;28;20051;-65
2021/09/10 00:51:38;;;;;;;36.83;32.22;;;;;;;;;;5077093;28;20045;-65
2021/09/10 00:54:23;;;;;;;41.13;35.47;;;;;;;;;;5091957;28;20521;-64
2021/09/10 00:57:09;;;;;;;37.97;33.92;;;;;;;;;;5092272;28;20127;-64
2021/09/10 00:59:54;;;;;;;37.20;32.85;;;;;;;;;;5092129;28;20044;-65
2021/09/10 01:02:39;;;;;;;36.72;32.72;;;;;;;;;;5092239;28;20118;-64
2021/09/10 01:05:25;;;;;;;33.25;29.52;;;;;;;;;;5091956;28;20048;-64
2021/09/10 01:08:11;;;;;;;34.80;31.02;;;;;;;;;;5092108;28;20047;-64
2021/09/10 01:10:56;;;;;;;36.03;32.15;;;;;;;;;;5093423;28;20052;-65
2021/09/10 01:13:42;;;;;;;32.65;29.23;;;;;;;;;;5098692;28;20060;-64
2021/09/10 01:16:27;;;;;;;36.85;32.85;;;;;;;;;;5098833;28;20056;-64
2021/09/10 01:19:25;;;;;;;34.80;30.50;;;;;;;;;;5083668;28;20052;-64
2021/09/10 01:22:10;;;;;;;35.95;29.58;;;;;;;;;;5098726;28;20106;-64
2021/09/10 01:25:12;;;;;;;32.75;28.38;;;;;;;;;;5098574;28;20052;-64
2021/09/10 01:27:57;;;;;;;36.50;32.63;;;;;;;;;;5098646;28;20413;-65
2021/09/10 01:30:43;;;;;;;35.38;31.67;;;;;;;;;;5098670;28;20055;-65
2021/09/10 01:33:28;;;;;;;34.97;30.85;;;;;;;;;;5098182;28;20060;-64
2021/09/10 01:36:14;;;;;;;35.50;31.10;;;;;;;;;;5098800;28;20060;-64
2021/09/10 01:38:59;;;;;;;37.22;32.33;;;;;;;;;;5098584;28;20130;-64
2021/09/10 01:41:45;;;;;;;42.05;34.53;;;;;;;;;;5098417;28;20132;-65
2021/09/10 01:44:30;;;;;;;36.15;32.33;;;;;;;;;;5098188;28;20498;-65
2021/09/10 01:47:15;;;;;;;37.30;33.13;;;;;;;;;;5098626;28;20048;-65
2021/09/10 01:50:01;;;;;;;36.83;32.80;;;;;;;;;;5098445;28;20055;-64
2021/09/10 01:52:46;;;;;;;41.55;35.10;;;;;;;;;;5098596;28;20083;-65
2021/09/10 01:55:32;;;;;;;37.90;33.35;;;;;;;;;;5098227;28;20055;-64
2021/09/10 01:58:18;;;;;;;54.35;38.58;;;;;;;;;;5098395;28;20453;-65
2021/09/10 02:01:03;;;;;;;42.40;37.75;;;;;;;;;;5098447;28;20052;-64
2021/09/10 02:03:48;;;;;;;41.15;36.72;;;;;;;;;;5098240;28;20119;-65
2021/09/10 02:06:34;;;;;;;41.45;35.83;;;;;;;;;;5098366;28;20052;-65
2021/09/10 02:09:19;;;;;;;43.50;37.47;;;;;;;;;;5098531;28;20630;-64
2021/09/10 02:12:04;;;;;;;44.05;38.75;;;;;;;;;;5098351;28;20052;-64
2021/09/10 02:14:50;;;;;;;44.55;38.05;;;;;;;;;;5097989;28;20047;-65
2021/09/10 02:17:35;;;;;;;43.60;37.53;;;;;;;;;;5098242;28;20501;-64
2021/09/10 02:20:20;;;;;;;44.22;38.67;;;;;;;;;;5098202;28;20414;-64
2021/09/10 02:23:05;;;;;;;42.38;37.80;;;;;;;;;;5095518;28;20506;-65
2021/09/10 02:25:51;;;;;;;44.63;37.15;;;;;;;;;;5095101;28;20127;-64
2021/09/10 02:28:36;;;;;;;42.90;37.83;;;;;;;;;;5095009;28;20052;-64
2021/09/10 02:31:21;;;;;;;47.10;39.35;;;;;;;;;;5094698;28;20055;-64
2021/09/10 02:34:07;;;;;;;45.45;40.53;;;;;;;;;;5094541;28;20052;-65
2021/09/10 02:36:52;;;;;;;46.65;38.85;;;;;;;;;;5094865;28;20083;-65
2021/09/10 02:39:37;;;;;;;48.03;40.53;;;;;;;;;;5094743;28;20048;-64
2021/09/10 02:42:23;;;;;;;44.72;39.92;;;;;;;;;;5094776;28;20052;-65
2021/09/10 02:45:08;;;;;;;44.70;38.60;;;;;;;;;;5094445;28;20052;-65
2021/09/10 02:47:53;;;;;;;51.55;41.53;;;;;;;;;;5094646;28;20410;-65
2021/09/10 02:50:38;;;;;;;55.35;41.70;;;;;;;;;;5094441;28;20048;-65
2021/09/10 02:53:24;;;;;;;53.80;44.33;;;;;;;;;;5094425;28;20047;-64
2021/09/10 02:56:09;;;;;;;58.58;45.75;;;;;;;;;;5094466;28;20055;-64
2021/09/10 02:58:55;;;;;;;60.65;48.55;;;;;;;;;;5094303;28;20505;-64
2021/09/10 03:01:44;;;;;;;60.33;47.42;;;;;;;;;;5093070;28;20048;-65
2021/09/10 03:04:29;;;;;;;54.00;45.30;;;;;;;;;;5093392;28;20060;-65
2021/09/10 03:07:16;;;;;;;59.80;47.15;;;;;;;;;;5094101;28;20056;-64
2021/09/10 03:10:01;;;;;;;58.58;50.38;;;;;;;;;;5094312;28;20067;-64
2021/09/10 03:12:47;;;;;;;65.50;52.45;;;;;;;;;;5094057;28;20064;-64
2021/09/10 03:15:32;;;;;;;72.55;53.28;;;;;;;;;;5093710;28;20051;-64
2021/09/10 03:18:17;;;;;;;65.50;52.67;;;;;;;;;;5094157;28;20115;-64
2021/09/10 03:21:03;;;;;;;70.00;53.85;;;;;;;;;;5093886;28;20052;-65
2021/09/10 03:23:48;;;;;;;76.93;58.08;;;;;;;;;;5093579;28;20048;-64
2021/09/10 03:26:34;;;;;;;72.00;54.60;;;;;;;;;;5094012;28;20052;-64
2021/09/10 03:29:19;;;;;;;74.18;57.33;;;;;;;;;;5093819;28;20056;-64
2021/09/10 03:32:05;;;;;;;75.78;55.92;;;;;;;;;;5093930;28;20045;-65
2021/09/10 03:34:50;;;;;;;81.57;59.75;;;;;;;;;;5093430;28;20056;-65
2021/09/10 03:37:35;;;;;;;75.85;58.33;;;;;;;;;;5093704;28;20044;-66
2021/09/10 03:40:21;;;;;;;73.80;58.72;;;;;;;;;;5093488;28;20106;-65
2021/09/10 03:43:07;;;;;;;80.78;59.13;;;;;;;;;;5093568;28;20048;-65
2021/09/10 03:45:52;;;;;;;81.40;60.17;;;;;;;;;;5093508;28;20048;-64
2021/09/10 03:48:37;;;;;;;80.97;61.50;;;;;;;;;;5093361;28;20581;-64
2021/09/10 03:51:23;;;;;;;85.68;62.30;;;;;;;;;;5093435;28;20087;-64
2021/09/10 03:54:08;;;;;;;76.45;61.67;;;;;;;;;;5093135;28;20052;-64
2021/09/10 03:56:53;;;;;;;98.20;66.95;;;;;;;;;;5093214;28;20135;-64
2021/09/10 03:59:39;;;;;;;92.97;67.15;;;;;;;;;;5093340;28;20123;-65
2021/09/10 04:02:24;;;;;;;97.53;70.05;;;;;;;;;;5093000;28;20502;-65
2021/09/10 04:05:09;;;;;;;90.03;66.88;;;;;;;;;;5092896;28;20044;-65
2021/09/10 04:07:55;;;;;;;94.55;66.55;;;;;;;;;;5092965;28;20048;-64
2021/09/10 04:10:40;;;;;;;97.45;68.45;;;;;;;;;;5093077;28;20467;-65
2021/09/10 04:13:26;;;;;;;93.55;66.82;;;;;;;;;;5092715;28;20048;-65
2021/09/10 04:16:11;;;;;;;91.13;66.13;;;;;;;;;;5093029;28;20139;-64
2021/09/10 04:18:57;;;;;;;84.78;65.20;;;;;;;;;;5092992;28;20452;-65
2021/09/10 04:21:42;;;;;;;89.90;66.55;;;;;;;;;;5092584;28;20522;-65
2021/09/10 04:24:27;;;;;;;94.93;67.55;;;;;;;;;;5092521;28;20430;-65
2021/09/10 04:27:12;;;;;;;92.47;66.40;;;;;;;;;;5092732;28;20084;-64
2021/09/10 04:29:58;;;;;;;98.65;69.32;;;;;;;;;;5092686;28;20052;-65
2021/09/10 04:32:44;;;;;;;97.80;67.40;;;;;;;;;;5092299;28;20052;-64
2021/09/10 04:35:29;;;;;;;98.10;69.05;;;;;;;;;;5092475;28;20052;-64
2021/09/10 04:38:14;;;;;;;92.88;64.45;;;;;;;;;;5092155;28;20083;-64
2021/09/10 04:40:59;;;;;;;95.57;65.90;;;;;;;;;;5092250;28;20052;-64
2021/09/10 04:43:45;;;;;;;101.57;69.65;;;;;;;;;;5092349;28;20040;-65
2021/09/10 04:46:30;;;;;;;108.40;74.03;;;;;;;;;;5091947;28;20052;-64
2021/09/10 04:49:15;;;;;;;98.20;68.03;;;;;;;;;;5092314;28;20077;-64
2021/09/10 04:52:01;;;;;;;110.40;69.88;;;;;;;;;;5092396;28;20459;-64
2021/09/10 04:54:46;;;;;;;111.80;71.85;;;;;;;;;;5092024;28;20052;-65
2021/09/10 04:57:31;;;;;;;107.78;72.47;;;;;;;;;;5092235;28;20460;-65
2021/09/10 05:00:17;;;;;;;109.28;70.22;;;;;;;;;;5092363;28;20052;-65
2021/09/10 05:03:02;;;;;;;101.85;71.00;;;;;;;;;;5092090;28;20494;-64
2021/09/10 05:05:48;;;;;;;114.55;72.28;;;;;;;;;;5092023;28;20044;-64
2021/09/10 05:08:34;;;;;;;113.82;72.75;;;;;;;;;;5092123;28;20557;-64
2021/09/10 05:11:19;;;;;;;109.32;70.80;;;;;;;;;;5092082;28;20125;-64
2021/09/10 05:14:04;;;;;;;118.93;73.00;;;;;;;;;;5091889;28;20119;-64
2021/09/10 05:16:50;;;;;;;124.07;77.80;;;;;;;;;;5092308;28;20051;-64
2021/09/10 05:19:35;;;;;;;127.13;75.63;;;;;;;;;;5092127;28;20052;-64
2021/09/10 05:22:20;;;;;;;119.10;74.05;;;;;;;;;;5091973;28;20056;-65
2021/09/10 05:25:07;;;;;;;122.72;76.88;;;;;;;;;;5091888;28;20056;-64
2021/09/10 05:27:53;;;;;;;118.65;78.03;;;;;;;;;;5092068;28;20052;-64
2021/09/10 05:30:38;;;;;;;140.65;81.97;;;;;;;;;;5091981;28;20052;-64
2021/09/10 05:33:23;;;;;;;120.05;77.07;;;;;;;;;;5091622;28;20056;-65
2021/09/10 05:36:09;;;;;;;123.78;78.15;;;;;;;;;;5092048;28;20082;-64
2021/09/10 05:38:54;;;;;;;115.80;72.78;;;;;;;;;;5091561;28;20048;-64
2021/09/10 05:41:39;;;;;;;105.18;71.15;;;;;;;;;;5091911;28;20593;-65
2021/09/10 05:44:25;;;;;;;115.20;73.25;;;;;;;;;;5091687;28;20123;-65
2021/09/10 05:47:10;;;;;;;111.60;71.05;;;;;;;;;;5091809;28;20123;-65
2021/09/10 05:49:56;;;;;;;157.50;82.25;;;;;;;;;;5091681;28;20040;-66
2021/09/10 05:52:41;;;;;;;124.10;75.03;;;;;;;;;;5091773;28;20119;-64
2021/09/10 05:55:26;;;;;;;114.90;73.03;;;;;;;;;;5091486;28;20115;-64
2021/09/10 05:58:12;;;;;;;136.68;79.60;;;;;;;;;;5092438;28;20127;-64
2021/09/10 06:00:57;;;;;;;136.27;80.05;;;;;;;;;;5095594;28;20048;-64
2021/09/10 06:03:42;;;;;;;166.05;89.70;;;;;;;;;;5095211;28;20052;-65
2021/09/10 06:06:28;;;;;;;156.77;87.65;;;;;;;;;;5095354;28;20083;-64
2021/09/10 06:09:13;;;;;;;169.23;89.82;;;;;;;;;;5095261;28;20498;-65
2021/09/10 06:11:58;;;;;;;164.48;89.72;;;;;;;;;;5095159;28;20083;-65
2021/09/10 06:14:43;;;;;;;163.40;90.68;;;;;;;;;;5094876;28;20052;-64
2021/09/10 06:17:29;;;;;;;163.70;89.05;;;;;;;;;;5095339;28;20047;-64
2021/09/10 06:20:14;;;;;;;138.00;80.05;;;;;;;;;;5095023;28;20509;-64
2021/09/10 06:23:00;;;;;;;150.82;86.57;;;;;;;;;;5094959;28;20044;-65
2021/09/10 06:25:45;;;;;;;147.80;83.88;;;;;;;;;;5094821;28;20048;-64
2021/09/10 06:28:30;;;;;;;141.13;80.72;;;;;;;;;;5095023;28;20052;-65
2021/09/10 06:31:16;;;;;;;129.20;76.75;;;;;;;;;;5094774;28;20052;-65
2021/09/10 06:34:01;;;;;;;122.35;74.82;;;;;;;;;;5094677;28;20059;-65
2021/09/10 06:36:46;;;;;;;104.65;68.88;;;;;;;;;;5094901;28;20128;-66
2021/09/10 06:39:32;;;;;;;101.75;65.72;;;;;;;;;;5081994;28;20060;-65
2021/09/10 06:42:17;;;;;;;96.95;65.53;;;;;;;;;;5094123;28;20048;-65
2021/09/10 06:45:02;;;;;;;91.53;62.30;;;;;;;;;;5094080;28;20441;-65
2021/09/10 06:47:47;;;;;;;106.47;63.95;;;;;;;;;;5094505;28;20048;-65
2021/09/10 06:50:33;;;;;;;85.40;58.17;;;;;;;;;;5094711;28;20048;-64
2021/09/10 06:53:18;;;;;;;94.05;62.90;;;;;;;;;;5094359;28;20060;-64
2021/09/10 06:56:04;;;;;;;76.63;55.67;;;;;;;;;;5092653;28;20056;-65
2021/09/10 06:58:49;;;;;;;79.32;57.13;;;;;;;;;;5093374;28;20134;-65
2021/09/10 07:01:35;;;;;;;69.65;52.22;;;;;;;;;;5094009;28;20513;-65
2021/09/10 07:04:20;;;;;;;64.38;50.72;;;;;;;;;;5093574;28;20419;-64
2021/09/10 07:07:05;;;;;;;61.47;47.78;;;;;;;;;;5093870;28;20119;-65
2021/09/10 07:09:51;;;;;;;62.92;46.30;;;;;;;;;;5093665;28;20115;-65
2021/09/10 07:12:36;;;;;;;57.28;46.25;;;;;;;;;;5093692;28;20056;-64
2021/09/10 07:15:21;;;;;;;64.28;49.05;;;;;;;;;;5093071;28;20403;-65
2021/09/10 07:18:07;;;;;;;61.33;47.60;;;;;;;;;;5093935;28;20066;-64
2021/09/10 07:20:52;;;;;;;64.80;46.50;;;;;;;;;;5093869;28;20056;-65
2021/09/10 07:23:37;;;;;;;55.08;43.08;;;;;;;;;;5092311;28;20533;-65
2021/09/10 07:26:24;;;;;;;64.25;47.55;;;;;;;;;;5093301;28;20048;-64
2021/09/10 07:29:10;;;;;;;60.70;44.70;;;;;;;;;;5093500;28;20123;-65
2021/09/10 07:31:55;;;;;;;61.72;45.10;;;;;;;;;;5093453;28;20127;-64
2021/09/10 07:34:41;;;;;;;59.70;44.10;;;;;;;;;;5093513;28;20052;-64
2021/09/10 07:37:30;;;;;;;62.63;45.65;;;;;;;;;;5093437;28;20055;-65
2021/09/10 07:40:16;;;;;;;62.60;45.58;;;;;;;;;;5092845;28;20550;-64
2021/09/10 07:43:01;;;;;;;62.42;45.78;;;;;;;;;;5093383;28;20506;-64
2021/09/10 07:45:46;;;;;;;63.95;47.28;;;;;;;;;;5092990;28;20044;-64
2021/09/10 07:48:32;;;;;;;59.05;46.47;;;;;;;;;;5093193;28;20055;-65
2021/09/10 07:51:18;;;;;;;59.45;44.67;;;;;;;;;;5093201;28;20052;-65
2021/09/10 07:54:04;;;;;;;55.33;43.03;;;;;;;;;;5105187;28;20056;-64
2021/09/10 07:56:49;;;;;;;63.92;47.40;;;;;;;;;;5113605;28;20055;-64
2021/09/10 07:59:34;;;;;;;65.38;47.65;;;;;;;;;;5113749;28;20055;-65
2021/09/10 08:02:19;;;;;;;57.13;44.10;;;;;;;;;;5113224;28;20456;-65
2021/09/10 08:05:05;;;;;;;53.97;44.30;;;;;;;;;;5113062;28;20505;-65
2021/09/10 08:07:50;;;;;;;57.83;46.45;;;;;;;;;;5110133;28;20047;-65
2021/09/10 08:10:36;;;;;;;59.15;45.35;;;;;;;;;;5072564;28;20049;-65
2021/09/10 08:13:21;;;;;;;59.85;47.70;;;;;;;;;;5072325;28;20418;-65
2021/09/10 08:16:08;;;;;;;66.30;44.72;;;;;;;;;;5072748;28;20048;-65
2021/09/10 08:18:53;;;;;;;54.00;44.92;;;;;;;;;;5072646;28;20053;-65
2021/09/10 08:21:39;;;;;;;59.10;47.05;;;;;;;;;;5071542;28;20139;-65
2021/09/10 08:24:24;;;;;;;55.45;44.75;;;;;;;;;;5072428;28;20056;-65
2021/09/10 08:27:09;;;;;;;56.53;44.60;;;;;;;;;;5072470;28;20116;-65
2021/09/10 08:29:55;;;;;;;52.72;42.47;;;;;;;;;;5072462;28;20056;-65
2021/09/10 08:32:40;;;;;;;52.13;42.67;;;;;;;;;;5072287;28;20056;-64
2021/09/10 08:35:25;;;;;;;48.92;43.20;;;;;;;;;;5072149;28;20127;-65
2021/09/10 08:38:11;;;;;;;48.75;39.40;;;;;;;;;;5072444;28;20056;-64
2021/09/10 08:40:57;;;;;;;51.33;42.60;;;;;;;;;;5072359;28;20080;-65
2021/09/10 08:43:48;;;;;;;52.83;43.08;;;;;;;;;;5072066;28;20056;-66
2021/09/10 08:46:37;;;;;;;50.15;41.60;;;;;;;;;;5072323;28;20048;-65
2021/09/10 08:49:22;;;;;;;51.78;41.60;;;;;;;;;;5072371;28;20056;-66
2021/09/10 08:52:08;;;;;;;47.30;42.20;;;;;;;;;;5056973;28;20511;-66
2021/09/10 08:54:53;;;;;;;51.63;43.22;;;;;;;;;;5071893;28;20053;-66
2021/09/10 08:57:45;;;;;;;48.72;42.00;;;;;;;;;;5072246;28;20060;-65
2021/09/10 09:00:30;;;;;;;;;;;;;;;;;;5072627;28;20052;-65
2021/09/10 09:03:15;;;;;;;55.15;43.85;;;;;;;;;;5071951;28;19920;-65
2021/09/10 09:06:01;;;;;;;52.47;44.95;;;;;;;;;;5072162;28;20517;-65
2021/09/10 09:08:46;;;;;;;54.83;46.38;;;;;;;;;;5072049;28;20045;-65
2021/09/10 09:11:31;;;;;;;53.35;44.70;;;;;;;;;;5071898;28;20052;-65
2021/09/10 09:14:17;;;;;;;50.58;42.83;;;;;;;;;;5071836;28;20065;-65
2021/09/10 09:17:17;;;;;;;52.15;43.97;;;;;;;;;;5071907;28;20697;-66
2021/09/10 09:20:17;;;;;;;51.15;43.20;;;;;;;;;;5071728;28;20049;-65
2021/09/10 09:23:04;;;;;;;49.13;42.80;;;;;;;;;;5071930;28;20052;-66
2021/09/10 09:25:49;;;;;;;47.50;42.20;;;;;;;;;;5071718;28;20052;-65
2021/09/10 09:28:35;;;;;;;49.75;43.33;;;;;;;;;;5071705;28;20068;-65
2021/09/10 09:31:20;;;;;;;46.85;41.90;;;;;;;;;;5071685;28;20052;-65
2021/09/10 09:34:06;;;;;;;48.33;43.25;;;;;;;;;;5075942;28;20040;-65
2021/09/10 09:36:52;;;;;;;48.30;43.03;;;;;;;;;;5075497;28;20526;-65
2021/09/10 09:39:56;;;;;;;45.70;40.85;;;;;;;;;;5072560;28;20505;-64
2021/09/10 09:42:41;;;;;;;43.50;39.03;;;;;;;;;;5093711;28;20076;-64
2021/09/10 09:45:26;;;;;;;45.35;40.55;;;;;;;;;;5095648;28;20474;-65
2021/09/10 09:48:12;;;;;;;43.67;38.92;;;;;;;;;;5095414;28;20052;-65
2021/09/10 09:50:58;;;;;;;44.40;39.88;;;;;;;;;;5095660;28;20052;-65
2021/09/10 09:53:44;;;;;;;42.33;38.15;;;;;;;;;;5095336;28;20065;-65
2021/09/10 09:56:29;;;;;;;42.40;37.90;;;;;;;;;;5093816;28;20526;-65
2021/09/10 09:59:15;;;;;;;40.75;36.85;;;;;;;;;;5094973;28;20506;-65
2021/09/10 10:02:01;;;;;;;42.10;36.42;;;;;;;;;;5093554;28;20055;-64
2021/09/10 10:04:46;;;;;;;41.80;37.83;;;;;;;;;;5093786;28;20048;-65
2021/09/10 10:07:39;;;;;;;41.20;37.15;;;;;;;;;;5094481;28;20640;-65
2021/09/10 10:10:25;;;;;;;41.03;36.90;;;;;;;;;;5094771;28;20119;-65
2021/09/10 10:13:10;;;;;;;40.88;36.25;;;;;;;;;;5094161;28;20084;-65
2021/09/10 10:15:56;;;;;;;40.05;36.10;;;;;;;;;;5076747;28;20131;-65
2021/09/10 10:18:43;;;;;;;37.00;33.47;;;;;;;;;;5095203;28;20052;-65
2021/09/10 10:22:00;;;;;;;39.03;33.60;;;;;;;;;;5094839;28;20502;-65
2021/09/10 10:24:47;;;;;;;32.67;29.58;;;;;;;;;;5068024;28;20048;-65
2021/09/10 10:27:35;;;;;;;33.00;29.42;;;;;;;;;;5094854;28;20580;-65
2021/09/10 10:30:21;;;;;;;42.55;30.23;;;;;;;;;;5083479;28;20059;-65
2021/09/10 10:33:23;;;;;;;34.03;29.92;;;;;;;;;;5090481;28;20063;-65
2021/09/10 10:36:27;;;;;;;33.97;30.38;;;;;;;;;;5090948;28;20052;-64
2021/09/10 10:39:13;;;;;;;35.63;32.33;;;;;;;;;;5090859;28;20056;-65
2021/09/10 10:42:02;;;;;;;35.28;31.65;;;;;;;;;;5090634;28;20044;-65
2021/09/10 10:44:48;;;;;;;37.33;33.47;;;;;;;;;;5090427;28;20040;-65
2021/09/10 10:47:33;;;;;;;35.58;32.35;;;;;;;;;;5071582;28;20510;-64
2021/09/10 10:50:33;;;;;;;38.50;34.58;;;;;;;;;;5052763;28;20447;-66
2021/09/10 10:53:18;;;;;;;37.17;33.38;;;;;;;;;;5056219;28;20052;-65
2021/09/10 10:56:21;;;;;;;38.90;35.15;;;;;;;;;;5073714;28;20510;-65
2021/09/10 10:59:15;;;;;;;37.35;33.55;;;;;;;;;;5059056;28;20514;-65
2021/09/10 11:05:25;;;;;;;35.22;31.80;;;;;;;;;;5073436;28;20052;-65
2021/09/10 11:08:10;;;;;;;33.42;30.25;;;;;;;;;;5073628;28;20461;-64
2021/09/10 11:10:56;;;;;;;32.65;29.20;;;;;;;;;;5073626;28;20495;-64
2021/09/10 11:13:42;;;;;;;34.67;31.40;;;;;;;;;;5073499;28;20049;-65
2021/09/10 11:16:27;;;;;;;31.75;28.70;;;;;;;;;;5073015;28;20128;-64
2021/09/10 11:19:12;;;;;;;33.38;30.00;;;;;;;;;;5073709;28;20057;-64
2021/09/10 11:22:01;;;;;;;32.67;29.67;;;;;;;;;;5058165;28;20653;-65
2021/09/10 11:24:47;;;;;;;33.70;30.60;;;;;;;;;;5073172;28;20052;-65
2021/09/10 11:27:38;;;;;;;31.45;28.58;;;;;;;;;;5057742;28;20510;-65
2021/09/10 11:30:23;;;;;;;31.67;28.77;;;;;;;;;;5073019;28;20127;-64
2021/09/10 11:33:08;;;;;;;31.92;28.95;;;;;;;;;;5073037;28;20131;-64
2021/09/10 11:35:54;;;;;;;32.28;28.98;;;;;;;;;;5073218;28;20048;-65
2021/09/10 11:38:40;;;;;;;33.53;30.40;;;;;;;;;;5072846;28;20057;-65
2021/09/10 11:41:25;;;;;;;31.83;28.85;;;;;;;;;;5073025;28;20052;-65
2021/09/10 11:44:12;;;;;;;31.88;29.10;;;;;;;;;;5057989;28;20442;-65
2021/09/10 11:46:58;;;;;;;30.95;27.60;;;;;;;;;;5072813;28;20045;-65
2021/09/10 11:49:57;;;;;;;28.90;26.00;;;;;;;;;;5072495;28;20056;-65
2021/09/10 11:52:42;;;;;;;36.83;27.35;;;;;;;;;;5071751;28;20095;-66
2021/09/10 11:55:28;;;;;;;29.58;26.13;;;;;;;;;;5072518;28;20052;-66
2021/09/10 11:58:13;;;;;;;29.02;26.13;;;;;;;;;;5072581;28;20057;-65
2021/09/10 12:01:14;;;;;;;26.15;23.40;;;;;;;;;;5087886;28;20060;-65
2021/09/10 12:04:09;;;;;;;31.40;21.48;;;;;;;;;;5092785;28;20510;-64
2021/09/10 12:06:58;;;;;;;25.95;22.23;;;;;;;;;;5092831;28;20125;-65
2021/09/10 12:09:54;;;;;;;31.00;21.15;;;;;;;;;;5092969;28;20044;-65
2021/09/10 12:12:40;;;;;;;22.98;20.60;;;;;;;;;;5059303;28;20056;-65
2021/09/10 12:15:29;;;;;;;25.48;20.48;;;;;;;;;;5067043;28;20056;-65
2021/09/10 12:18:16;;;;;;;31.02;20.75;;;;;;;;;;5050836;28;20060;-65
2021/09/10 12:21:04;;;;;;;33.72;21.33;;;;;;;;;;5050610;28;20052;-65
2021/09/10 12:23:49;;;;;;;23.05;20.95;;;;;;;;;;5050192;28;20729;-65
2021/09/10 12:26:47;;;;;;;22.67;20.65;;;;;;;;;;5050698;28;20479;-65
2021/09/10 12:29:33;;;;;;;25.30;22.98;;;;;;;;;;5052355;28;20056;-65
2021/09/10 12:32:19;;;;;;;24.65;22.55;;;;;;;;;;5052122;28;20049;-65
2021/09/10 12:35:04;;;;;;;23.92;21.83;;;;;;;;;;5052202;28;20418;-65
2021/09/10 12:37:53;;;;;;;24.52;22.42;;;;;;;;;;5052182;28;20415;-64
2021/09/10 12:40:44;;;;;;;25.02;22.55;;;;;;;;;;5052324;28;20127;-65
2021/09/10 12:43:30;;;;;;;25.63;23.23;;;;;;;;;;5051906;28;20049;-65
2021/09/10 12:46:18;;;;;;;19.80;17.98;;;;;;;;;;5052569;28;20053;-65
2021/09/10 12:49:04;;;;;;;14.23;12.93;;;;;;;;;;5052282;28;20049;-65
2021/09/10 12:51:50;;;;;;;15.20;13.02;;;;;;;;;;5051807;28;20052;-65
2021/09/10 12:54:35;;;;;;;12.45;11.20;;;;;;;;;;5051783;28;20057;-65
2021/09/10 12:57:22;;;;;;;12.00;10.15;;;;;;;;;;5051979;28;20503;-65
2021/09/10 13:00:08;;;;;;;6.47;5.95;;;;;;;;;;5051904;28;20507;-65
2021/09/10 13:02:54;;;;;;;10.55;4.88;;;;;;;;;;5051548;28;20049;-65
2021/09/10 13:05:41;;;;;;;6.55;5.85;;;;;;;;;;5051887;28;20045;-65
2021/09/10 13:08:27;;;;;;;7.63;6.90;;;;;;;;;;5051494;28;20049;-65
2021/09/10 13:11:12;;;;;;;8.25;6.35;;;;;;;;;;5051875;28;20049;-65
2021/09/10 13:14:00;;;;;;;6.50;5.97;;;;;;;;;;5051461;28;20418;-65
2021/09/10 13:16:46;;;;;;;7.80;7.10;;;;;;;;;;5051809;28;20057;-65
2021/09/10 13:19:31;;;;;;;7.57;6.55;;;;;;;;;;5051837;28;20474;-65
2021/09/10 13:22:17;;;;;;;9.70;8.70;;;;;;;;;;5051765;28;20053;-65
2021/09/10 13:25:05;;;;;;;8.55;7.78;;;;;;;;;;5051482;28;20049;-65
2021/09/10 13:27:50;;;;;;;7.93;7.18;;;;;;;;;;5051628;28;20045;-65
2021/09/10 13:30:37;;;;;;;7.93;7.18;;;;;;;;;;5051626;28;20056;-65
2021/09/10 13:33:23;;;;;;;8.70;7.70;;;;;;;;;;5051350;28;20457;-65
2021/09/10 13:36:10;;;;;;;8.63;7.80;;;;;;;;;;5051621;28;20581;-65
2021/09/10 13:38:56;;;;;;;8.82;8.02;;;;;;;;;;5051741;28;20049;-65
2021/09/10 13:41:42;;;;;;;9.25;8.45;;;;;;;;;;5051616;28;20057;-65
2021/09/10 13:44:28;;;;;;;12.00;9.15;;;;;;;;;;5051145;28;20049;-65
2021/09/10 13:47:13;;;;;;;9.45;8.57;;;;;;;;;;5051569;28;20453;-65
2021/09/10 13:49:59;;;;;;;8.80;8.07;;;;;;;;;;5051589;28;20124;-65
2021/09/10 13:52:44;;;;;;;8.82;7.93;;;;;;;;;;5051279;28;20714;-66
2021/09/10 13:55:29;;;;;;;32.83;10.70;;;;;;;;;;5051346;28;20045;-66
2021/09/10 13:58:15;;;;;;;8.70;7.90;;;;;;;;;;5051438;28;20053;-65
2021/09/10 14:01:01;;;;;;;11.43;7.70;;;;;;;;;;5051314;28;20511;-65
2021/09/10 14:03:46;;;;;;;7.70;6.78;;;;;;;;;;5051256;28;20056;-66
2021/09/10 14:06:31;;;;;;;7.50;6.78;;;;;;;;;;5051329;28;20511;-65
2021/09/10 14:09:17;;;;;;;7.30;6.32;;;;;;;;;;5051385;28;20120;-65
2021/09/10 14:12:03;;;;;;;6.45;5.85;;;;;;;;;;5051037;28;20061;-65
2021/09/10 14:14:48;;;;;;;7.10;6.47;;;;;;;;;;5050964;28;20049;-65
2021/09/10 14:17:34;;;;;;;9.75;7.30;;;;;;;;;;5051058;28;20519;-66
2021/09/10 14:20:19;;;;;;;11.30;7.15;;;;;;;;;;5053563;28;20127;-66
2021/09/10 14:23:05;;;;;;;11.48;7.85;;;;;;;;;;5054792;28;20049;-66
2021/09/10 14:25:50;;;;;;;13.77;8.77;;;;;;;;;;5054672;28;20053;-65
2021/09/10 14:28:35;;;;;;;14.18;8.63;;;;;;;;;;5054592;28;20053;-65
2021/09/10 14:31:20;;;;;;;13.05;8.32;;;;;;;;;;5054676;28;20049;-65
2021/09/10 14:34:06;;;;;;;25.55;11.02;;;;;;;;;;5054510;28;20049;-66
2021/09/10 14:36:51;;;;;;;13.00;10.05;;;;;;;;;;5054596;28;20049;-65
2021/09/10 14:39:36;;;;;;;11.65;9.27;;;;;;;;;;5054696;28;20057;-65
2021/09/10 14:42:22;;;;;;;16.92;10.95;;;;;;;;;;5054359;28;20120;-65
2021/09/10 14:45:07;;;;;;;11.32;10.43;;;;;;;;;;5054040;28;20057;-65
2021/09/10 14:47:52;;;;;;;8.43;7.50;;;;;;;;;;5054557;28;20454;-65
2021/09/10 14:50:38;;;;;;;7.03;5.70;;;;;;;;;;5054193;28;20057;-65
2021/09/10 14:53:23;;;;;;;5.70;5.18;;;;;;;;;;5053450;28;20128;-65
2021/09/10 14:56:08;;;;;;;6.13;4.53;;;;;;;;;;5054216;28;20045;-64
2021/09/10 14:59:05;;;;;;;4.45;3.97;;;;;;;;;;5054181;28;20053;-64
2021/09/10 15:01:50;;;;;;;4.30;3.85;;;;;;;;;;5053822;28;20044;-64
2021/09/10 15:04:35;;;;;;;4.22;3.78;;;;;;;;;;5054001;28;20045;-65
2021/09/10 15:07:21;;;;;;;6.03;4.25;;;;;;;;;;5054129;28;20045;-64
2021/09/10 15:10:06;;;;;;;7.65;3.40;;;;;;;;;;5053907;28;20053;-64
2021/09/10 15:12:51;;;;;;;5.95;3.33;;;;;;;;;;5048790;28;20053;-64
2021/09/10 15:15:37;;;;;;;4.40;2.95;;;;;;;;;;5059731;28;20104;-64
2021/09/10 15:18:22;;;;;;;4.00;2.28;;;;;;;;;;5061684;28;20091;-64
2021/09/10 15:21:07;;;;;;;3.15;1.88;;;;;;;;;;5053602;28;20053;-64
2021/09/10 15:23:53;;;;;;;16.65;2.40;;;;;;;;;;5069885;28;20053;-65
2021/09/10 15:26:38;;;;;;;7.38;1.98;;;;;;;;;;5073464;28;20503;-65
2021/09/10 15:29:24;;;;;;;9.05;2.63;;;;;;;;;;5073408;28;20049;-65
2021/09/10 15:32:09;;;;;;;13.25;3.92;;;;;;;;;;5073694;28;20123;-65
2021/09/10 15:34:54;;;;;;;11.85;3.47;;;;;;;;;;5072944;28;20048;-65
2021/09/10 15:37:39;;;;;;;16.75;4.78;;;;;;;;;;5073540;28;20045;-65
2021/09/10 15:40:25;;;;;;;9.25;5.13;;;;;;;;;;5073190;28;20063;-64
2021/09/10 15:43:10;;;;;;;9.63;6.05;;;;;;;;;;5073100;28;20048;-65
2021/09/10 15:45:55;;;;;;;10.55;6.63;;;;;;;;;;5073548;28;20049;-65
2021/09/10 15:48:41;;;;;;;10.27;7.45;;;;;;;;;;5070514;28;20119;-65
2021/09/10 15:51:30;;;;;;;10.13;8.35;;;;;;;;;;5070587;28;20041;-65
2021/09/10 15:54:15;;;;;;;11.55;8.50;;;;;;;;;;5072495;28;20510;-65
2021/09/10 15:57:01;;;;;;;9.05;8.13;;;;;;;;;;5072737;28;20135;-65
2021/09/10 15:59:45;;;;;;;9.25;8.32;;;;;;;;;;5041568;28;20045;-65
2021/09/10 16:02:31;;;;;;;14.40;9.38;;;;;;;;;;5072421;28;20053;-65
2021/09/10 16:05:21;;;;;;;10.50;9.18;;;;;;;;;;5072283;28;20053;-65
2021/09/10 16:08:06;;;;;;;12.10;9.05;;;;;;;;;;5059251;28;20048;-65
2021/09/10 16:10:53;;;;;;;11.73;9.65;;;;;;;;;;5072400;28;20505;-64
2021/09/10 16:13:39;;;;;;;11.15;9.65;;;;;;;;;;5068791;28;20057;-65